sensor_id;sensor_type;location;lat;lon;timestamp;P1;durP1;ratioP1;P2;durP2;ratioP2
17207;SDS011;8720;48.488;9.202;2023-02-26T00:01:00;4.40;;;2.57;;
17207;SDS011;8720;48.488;9.202;2023-02-26T00:03:27;3.90;;;2.60;;
17207;SDS011;8720;48.488;9.202;2023-02-26T00:05:58;2.90;;;2.60;;
17207;SDS011;8720;48.488;9.202;2023-02-26T00:08:26;4.82;;;2.90;;
17207;SDS011;8720;48.488;9.202;2023-02-26T00:10:55;5.70;;;2.60;;
17207;SDS011;8720;48.488;9.202;2023-02-26T00:13:26;4.13;;;2.67;;
17207;SDS011;8720;48.488;9.202;2023-02-26T00:15:56;3.95;;;2.58;;
17207;SDS011;8720;48.488;9.202;2023-02-26T00:18:26;11.02;;;2.88;;
17207;SDS011;8720;48.488;9.202;2023-02-26T00:20:55;3.65;;;2.20;;
17207;SDS011;8720;48.488;9.202;2023-02-26T00:23:23;3.38;;;2.30;;
17207;SDS011;8720;48.488;9.202;2023-02-26T00:25:50;3.47;;;2.22;;
17207;SDS011;8720;48.488;9.202;2023-02-26T00:28:18;3.65;;;2.60;;
17207;SDS011;8720;48.488;9.202;2023-02-26T00:30:46;3.03;;;2.08;;
17207;SDS011;8720;48.488;9.202;2023-02-26T00:33:15;3.08;;;2.78;;
17207;SDS011;8720;48.488;9.202;2023-02-26T00:35:44;3.92;;;2.47;;
17207;SDS011;8720;48.488;9.202;2023-02-26T00:38:13;4.43;;;2.60;;
17207;SDS011;8720;48.488;9.202;2023-02-26T00:40:46;4.90;;;2.90;;
17207;SDS011;8720;48.488;9.202;2023-02-26T00:43:19;4.15;;;2.33;;
17207;SDS011;8720;48.488;9.202;2023-02-26T00:45:53;3.20;;;2.40;;
17207;SDS011;8720;48.488;9.202;2023-02-26T00:48:37;4.18;;;2.90;;
17207;SDS011;8720;48.488;9.202;2023-02-26T00:51:20;4.75;;;2.67;;
17207;SDS011;8720;48.488;9.202;2023-02-26T00:53:58;5.55;;;2.63;;
17207;SDS011;8720;48.488;9.202;2023-02-26T00:56:34;4.38;;;2.90;;
17207;SDS011;8720;48.488;9.202;2023-02-26T00:59:01;3.57;;;2.43;;
17207;SDS011;8720;48.488;9.202;2023-02-26T01:01:29;4.75;;;2.92;;
17207;SDS011;8720;48.488;9.202;2023-02-26T01:03:58;4.65;;;2.55;;
17207;SDS011;8720;48.488;9.202;2023-02-26T01:06:26;4.07;;;2.95;;
17207;SDS011;8720;48.488;9.202;2023-02-26T01:09:01;4.20;;;3.00;;
17207;SDS011;8720;48.488;9.202;2023-02-26T01:11:38;3.43;;;2.67;;
17207;SDS011;8720;48.488;9.202;2023-02-26T01:14:06;2.77;;;2.00;;
17207;SDS011;8720;48.488;9.202;2023-02-26T01:16:37;3.00;;;2.70;;
17207;SDS011;8720;48.488;9.202;2023-02-26T01:19:30;3.72;;;2.50;;
17207;SDS011;8720;48.488;9.202;2023-02-26T01:22:12;4.82;;;2.50;;
17207;SDS011;8720;48.488;9.202;2023-02-26T01:24:45;4.60;;;3.00;;
17207;SDS011;8720;48.488;9.202;2023-02-26T01:27:17;3.03;;;2.70;;
17207;SDS011;8720;48.488;9.202;2023-02-26T01:29:44;3.33;;;3.00;;
17207;SDS011;8720;48.488;9.202;2023-02-26T01:32:14;3.70;;;2.37;;
17207;SDS011;8720;48.488;9.202;2023-02-26T01:34:50;4.17;;;2.87;;
17207;SDS011;8720;48.488;9.202;2023-02-26T01:37:28;4.30;;;2.60;;
17207;SDS011;8720;48.488;9.202;2023-02-26T01:43:43;8.87;;;6.30;;
17207;SDS011;8720;48.488;9.202;2023-02-26T01:46:25;3.30;;;2.60;;
17207;SDS011;8720;48.488;9.202;2023-02-26T01:49:00;4.40;;;2.70;;
17207;SDS011;8720;48.488;9.202;2023-02-26T01:51:43;5.60;;;3.13;;
17207;SDS011;8720;48.488;9.202;2023-02-26T01:54:17;6.40;;;2.87;;
17207;SDS011;8720;48.488;9.202;2023-02-26T01:56:46;5.73;;;3.07;;
17207;SDS011;8720;48.488;9.202;2023-02-26T01:59:18;3.63;;;2.70;;
17207;SDS011;8720;48.488;9.202;2023-02-26T02:01:49;4.50;;;2.95;;
17207;SDS011;8720;48.488;9.202;2023-02-26T02:04:22;7.70;;;2.83;;
17207;SDS011;8720;48.488;9.202;2023-02-26T02:06:53;3.00;;;2.65;;
17207;SDS011;8720;48.488;9.202;2023-02-26T02:09:21;5.37;;;2.63;;
17207;SDS011;8720;48.488;9.202;2023-02-26T02:12:01;3.43;;;2.47;;
17207;SDS011;8720;48.488;9.202;2023-02-26T02:14:50;4.10;;;3.10;;
17207;SDS011;8720;48.488;9.202;2023-02-26T02:17:36;5.53;;;2.85;;
17207;SDS011;8720;48.488;9.202;2023-02-26T02:20:25;4.45;;;2.72;;
17207;SDS011;8720;48.488;9.202;2023-02-26T02:23:28;3.78;;;2.97;;
17207;SDS011;8720;48.488;9.202;2023-02-26T02:26:12;5.38;;;2.80;;
17207;SDS011;8720;48.488;9.202;2023-02-26T02:29:12;4.40;;;2.93;;
17207;SDS011;8720;48.488;9.202;2023-02-26T02:32:21;5.93;;;3.03;;
17207;SDS011;8720;48.488;9.202;2023-02-26T02:34:57;4.60;;;2.90;;
17207;SDS011;8720;48.488;9.202;2023-02-26T02:37:33;3.42;;;3.13;;
17207;SDS011;8720;48.488;9.202;2023-02-26T02:40:07;6.13;;;3.55;;
17207;SDS011;8720;48.488;9.202;2023-02-26T02:42:41;4.30;;;3.15;;
17207;SDS011;8720;48.488;9.202;2023-02-26T02:45:16;4.45;;;3.28;;
17207;SDS011;8720;48.488;9.202;2023-02-26T02:47:52;6.03;;;2.80;;
17207;SDS011;8720;48.488;9.202;2023-02-26T02:50:26;4.97;;;2.80;;
17207;SDS011;8720;48.488;9.202;2023-02-26T02:53:00;3.30;;;3.00;;
17207;SDS011;8720;48.488;9.202;2023-02-26T02:55:33;3.63;;;2.83;;
17207;SDS011;8720;48.488;9.202;2023-02-26T02:58:10;4.45;;;2.97;;
17207;SDS011;8720;48.488;9.202;2023-02-26T03:03:27;4.80;;;3.20;;
17207;SDS011;8720;48.488;9.202;2023-02-26T03:06:02;4.85;;;2.97;;
17207;SDS011;8720;48.488;9.202;2023-02-26T03:08:30;5.78;;;3.60;;
17207;SDS011;8720;48.488;9.202;2023-02-26T03:11:03;4.15;;;3.05;;
17207;SDS011;8720;48.488;9.202;2023-02-26T03:13:32;5.13;;;3.00;;
17207;SDS011;8720;48.488;9.202;2023-02-26T03:16:12;4.43;;;2.95;;
17207;SDS011;8720;48.488;9.202;2023-02-26T03:20:07;4.25;;;2.80;;
17207;SDS011;8720;48.488;9.202;2023-02-26T03:22:46;4.35;;;2.90;;
17207;SDS011;8720;48.488;9.202;2023-02-26T03:25:28;5.93;;;3.45;;
17207;SDS011;8720;48.488;9.202;2023-02-26T03:28:05;4.25;;;3.00;;
17207;SDS011;8720;48.488;9.202;2023-02-26T03:30:43;7.15;;;3.13;;
17207;SDS011;8720;48.488;9.202;2023-02-26T03:33:18;2.90;;;2.63;;
17207;SDS011;8720;48.488;9.202;2023-02-26T03:35:54;8.30;;;3.42;;
17207;SDS011;8720;48.488;9.202;2023-02-26T03:38:29;4.60;;;3.15;;
17207;SDS011;8720;48.488;9.202;2023-02-26T03:41:07;6.32;;;3.00;;
17207;SDS011;8720;48.488;9.202;2023-02-26T03:43:40;9.13;;;3.15;;
17207;SDS011;8720;48.488;9.202;2023-02-26T03:46:17;3.95;;;3.20;;
17207;SDS011;8720;48.488;9.202;2023-02-26T03:48:52;5.30;;;2.85;;
17207;SDS011;8720;48.488;9.202;2023-02-26T03:51:28;4.68;;;3.40;;
17207;SDS011;8720;48.488;9.202;2023-02-26T03:54:27;6.72;;;2.83;;
17207;SDS011;8720;48.488;9.202;2023-02-26T03:57:19;3.67;;;3.00;;
17207;SDS011;8720;48.488;9.202;2023-02-26T04:00:13;3.47;;;2.55;;
17207;SDS011;8720;48.488;9.202;2023-02-26T04:02:47;3.97;;;2.78;;
17207;SDS011;8720;48.488;9.202;2023-02-26T04:05:27;3.85;;;2.92;;
17207;SDS011;8720;48.488;9.202;2023-02-26T04:08:00;5.25;;;3.00;;
17207;SDS011;8720;48.488;9.202;2023-02-26T04:10:29;5.40;;;2.90;;
17207;SDS011;8720;48.488;9.202;2023-02-26T04:13:06;5.70;;;3.20;;
17207;SDS011;8720;48.488;9.202;2023-02-26T04:15:34;4.57;;;3.30;;
17207;SDS011;8720;48.488;9.202;2023-02-26T04:18:03;5.13;;;2.88;;
17207;SDS011;8720;48.488;9.202;2023-02-26T04:20:31;5.35;;;3.58;;
17207;SDS011;8720;48.488;9.202;2023-02-26T04:23:00;3.25;;;2.85;;
17207;SDS011;8720;48.488;9.202;2023-02-26T04:25:28;6.57;;;2.97;;
17207;SDS011;8720;48.488;9.202;2023-02-26T04:27:57;4.85;;;3.22;;
17207;SDS011;8720;48.488;9.202;2023-02-26T04:30:24;3.70;;;3.00;;
17207;SDS011;8720;48.488;9.202;2023-02-26T04:32:51;3.97;;;3.00;;
17207;SDS011;8720;48.488;9.202;2023-02-26T04:35:19;5.88;;;3.90;;
17207;SDS011;8720;48.488;9.202;2023-02-26T04:37:47;3.63;;;2.85;;
17207;SDS011;8720;48.488;9.202;2023-02-26T04:40:16;4.93;;;3.10;;
17207;SDS011;8720;48.488;9.202;2023-02-26T04:42:45;4.90;;;3.30;;
17207;SDS011;8720;48.488;9.202;2023-02-26T04:45:18;4.85;;;3.30;;
17207;SDS011;8720;48.488;9.202;2023-02-26T04:47:46;4.63;;;2.85;;
17207;SDS011;8720;48.488;9.202;2023-02-26T04:50:13;4.80;;;3.67;;
17207;SDS011;8720;48.488;9.202;2023-02-26T04:52:42;4.97;;;2.70;;
17207;SDS011;8720;48.488;9.202;2023-02-26T04:55:10;5.40;;;3.38;;
17207;SDS011;8720;48.488;9.202;2023-02-26T04:57:39;7.32;;;3.65;;
17207;SDS011;8720;48.488;9.202;2023-02-26T05:00:07;4.85;;;3.03;;
17207;SDS011;8720;48.488;9.202;2023-02-26T05:02:37;4.63;;;3.17;;
17207;SDS011;8720;48.488;9.202;2023-02-26T05:05:05;3.85;;;3.28;;
17207;SDS011;8720;48.488;9.202;2023-02-26T05:07:33;8.15;;;3.75;;
17207;SDS011;8720;48.488;9.202;2023-02-26T05:10:00;6.72;;;3.70;;
17207;SDS011;8720;48.488;9.202;2023-02-26T05:12:27;4.95;;;3.30;;
17207;SDS011;8720;48.488;9.202;2023-02-26T05:14:56;4.07;;;3.25;;
17207;SDS011;8720;48.488;9.202;2023-02-26T05:17:23;4.55;;;3.65;;
17207;SDS011;8720;48.488;9.202;2023-02-26T05:19:51;5.13;;;3.20;;
17207;SDS011;8720;48.488;9.202;2023-02-26T05:22:18;4.68;;;2.97;;
17207;SDS011;8720;48.488;9.202;2023-02-26T05:24:45;4.20;;;2.80;;
17207;SDS011;8720;48.488;9.202;2023-02-26T05:27:14;5.75;;;2.95;;
17207;SDS011;8720;48.488;9.202;2023-02-26T05:29:44;3.90;;;2.85;;
17207;SDS011;8720;48.488;9.202;2023-02-26T05:32:14;4.53;;;3.53;;
17207;SDS011;8720;48.488;9.202;2023-02-26T05:34:42;5.07;;;3.00;;
17207;SDS011;8720;48.488;9.202;2023-02-26T05:37:09;4.38;;;3.25;;
17207;SDS011;8720;48.488;9.202;2023-02-26T05:39:36;3.83;;;3.35;;
17207;SDS011;8720;48.488;9.202;2023-02-26T05:42:05;5.55;;;3.60;;
17207;SDS011;8720;48.488;9.202;2023-02-26T05:44:33;4.18;;;3.05;;
17207;SDS011;8720;48.488;9.202;2023-02-26T05:47:00;4.18;;;3.78;;
17207;SDS011;8720;48.488;9.202;2023-02-26T05:49:29;4.85;;;3.05;;
17207;SDS011;8720;48.488;9.202;2023-02-26T05:51:56;6.90;;;5.07;;
17207;SDS011;8720;48.488;9.202;2023-02-26T05:54:24;7.13;;;3.75;;
17207;SDS011;8720;48.488;9.202;2023-02-26T05:56:51;4.47;;;3.20;;
17207;SDS011;8720;48.488;9.202;2023-02-26T05:59:18;6.80;;;3.65;;
17207;SDS011;8720;48.488;9.202;2023-02-26T06:01:46;4.15;;;3.30;;
17207;SDS011;8720;48.488;9.202;2023-02-26T06:04:13;4.65;;;3.00;;
17207;SDS011;8720;48.488;9.202;2023-02-26T06:06:41;8.85;;;3.10;;
17207;SDS011;8720;48.488;9.202;2023-02-26T06:09:09;3.15;;;2.75;;
17207;SDS011;8720;48.488;9.202;2023-02-26T06:11:36;4.30;;;3.00;;
17207;SDS011;8720;48.488;9.202;2023-02-26T06:14:04;3.60;;;2.90;;
17207;SDS011;8720;48.488;9.202;2023-02-26T06:16:32;4.28;;;3.00;;
17207;SDS011;8720;48.488;9.202;2023-02-26T06:19:00;5.75;;;2.80;;
17207;SDS011;8720;48.488;9.202;2023-02-26T06:21:27;3.55;;;3.03;;
17207;SDS011;8720;48.488;9.202;2023-02-26T06:23:56;7.07;;;2.80;;
17207;SDS011;8720;48.488;9.202;2023-02-26T06:26:23;5.00;;;3.70;;
17207;SDS011;8720;48.488;9.202;2023-02-26T06:28:51;5.20;;;3.70;;
17207;SDS011;8720;48.488;9.202;2023-02-26T06:31:18;4.13;;;3.30;;
17207;SDS011;8720;48.488;9.202;2023-02-26T06:33:45;3.90;;;3.50;;
17207;SDS011;8720;48.488;9.202;2023-02-26T06:36:13;6.82;;;3.58;;
17207;SDS011;8720;48.488;9.202;2023-02-26T06:38:41;6.80;;;3.40;;
17207;SDS011;8720;48.488;9.202;2023-02-26T06:41:11;7.32;;;3.40;;
17207;SDS011;8720;48.488;9.202;2023-02-26T06:43:38;4.50;;;2.83;;
17207;SDS011;8720;48.488;9.202;2023-02-26T06:46:05;4.07;;;3.20;;
17207;SDS011;8720;48.488;9.202;2023-02-26T06:48:33;4.85;;;3.42;;
17207;SDS011;8720;48.488;9.202;2023-02-26T06:51:00;4.80;;;3.13;;
17207;SDS011;8720;48.488;9.202;2023-02-26T06:53:27;6.05;;;3.35;;
17207;SDS011;8720;48.488;9.202;2023-02-26T06:55:55;3.97;;;3.53;;
17207;SDS011;8720;48.488;9.202;2023-02-26T06:58:23;6.13;;;4.03;;
17207;SDS011;8720;48.488;9.202;2023-02-26T07:00:51;5.40;;;3.13;;
17207;SDS011;8720;48.488;9.202;2023-02-26T07:03:18;5.88;;;3.30;;
17207;SDS011;8720;48.488;9.202;2023-02-26T07:05:46;6.25;;;3.60;;
17207;SDS011;8720;48.488;9.202;2023-02-26T07:08:13;4.70;;;3.63;;
17207;SDS011;8720;48.488;9.202;2023-02-26T07:10:41;5.20;;;3.00;;
17207;SDS011;8720;48.488;9.202;2023-02-26T07:13:10;6.57;;;3.70;;
17207;SDS011;8720;48.488;9.202;2023-02-26T07:15:39;6.00;;;3.25;;
17207;SDS011;8720;48.488;9.202;2023-02-26T07:18:06;4.55;;;2.80;;
17207;SDS011;8720;48.488;9.202;2023-02-26T07:20:34;5.65;;;3.50;;
17207;SDS011;8720;48.488;9.202;2023-02-26T07:23:01;7.60;;;3.60;;
17207;SDS011;8720;48.488;9.202;2023-02-26T07:25:28;4.75;;;3.33;;
17207;SDS011;8720;48.488;9.202;2023-02-26T07:27:56;3.90;;;3.13;;
17207;SDS011;8720;48.488;9.202;2023-02-26T07:30:24;9.32;;;4.07;;
17207;SDS011;8720;48.488;9.202;2023-02-26T07:32:53;5.90;;;3.33;;
17207;SDS011;8720;48.488;9.202;2023-02-26T07:35:23;4.07;;;3.15;;
17207;SDS011;8720;48.488;9.202;2023-02-26T07:37:50;6.40;;;3.35;;
17207;SDS011;8720;48.488;9.202;2023-02-26T07:40:18;4.13;;;3.10;;
17207;SDS011;8720;48.488;9.202;2023-02-26T07:42:45;4.55;;;3.30;;
17207;SDS011;8720;48.488;9.202;2023-02-26T07:45:13;4.85;;;3.25;;
17207;SDS011;8720;48.488;9.202;2023-02-26T07:47:42;5.35;;;3.40;;
17207;SDS011;8720;48.488;9.202;2023-02-26T07:50:11;4.75;;;2.95;;
17207;SDS011;8720;48.488;9.202;2023-02-26T07:52:39;5.90;;;3.55;;
17207;SDS011;8720;48.488;9.202;2023-02-26T07:55:07;6.45;;;3.50;;
17207;SDS011;8720;48.488;9.202;2023-02-26T07:57:35;6.10;;;3.45;;
17207;SDS011;8720;48.488;9.202;2023-02-26T08:00:03;4.03;;;3.42;;
17207;SDS011;8720;48.488;9.202;2023-02-26T08:02:37;5.05;;;3.22;;
17207;SDS011;8720;48.488;9.202;2023-02-26T08:05:04;8.60;;;3.70;;
17207;SDS011;8720;48.488;9.202;2023-02-26T08:07:34;10.45;;;3.80;;
17207;SDS011;8720;48.488;9.202;2023-02-26T08:10:01;6.60;;;3.30;;
17207;SDS011;8720;48.488;9.202;2023-02-26T08:12:29;3.95;;;3.45;;
17207;SDS011;8720;48.488;9.202;2023-02-26T08:14:57;4.10;;;3.70;;
17207;SDS011;8720;48.488;9.202;2023-02-26T08:17:24;5.40;;;3.88;;
17207;SDS011;8720;48.488;9.202;2023-02-26T08:19:51;5.13;;;2.95;;
17207;SDS011;8720;48.488;9.202;2023-02-26T08:22:19;3.70;;;3.20;;
17207;SDS011;8720;48.488;9.202;2023-02-26T08:24:49;6.47;;;3.07;;
17207;SDS011;8720;48.488;9.202;2023-02-26T08:27:16;6.05;;;3.35;;
17207;SDS011;8720;48.488;9.202;2023-02-26T08:29:44;4.75;;;3.40;;
17207;SDS011;8720;48.488;9.202;2023-02-26T08:32:14;4.23;;;2.57;;
17207;SDS011;8720;48.488;9.202;2023-02-26T08:34:43;6.27;;;3.47;;
17207;SDS011;8720;48.488;9.202;2023-02-26T08:37:11;4.20;;;3.10;;
17207;SDS011;8720;48.488;9.202;2023-02-26T08:39:39;5.57;;;3.58;;
17207;SDS011;8720;48.488;9.202;2023-02-26T08:42:08;5.53;;;3.72;;
17207;SDS011;8720;48.488;9.202;2023-02-26T08:44:36;6.53;;;3.33;;
17207;SDS011;8720;48.488;9.202;2023-02-26T08:47:03;3.38;;;3.00;;
17207;SDS011;8720;48.488;9.202;2023-02-26T08:49:31;5.28;;;3.53;;
17207;SDS011;8720;48.488;9.202;2023-02-26T08:51:58;4.70;;;2.58;;
17207;SDS011;8720;48.488;9.202;2023-02-26T08:54:26;5.05;;;3.03;;
17207;SDS011;8720;48.488;9.202;2023-02-26T08:56:53;5.55;;;3.10;;
17207;SDS011;8720;48.488;9.202;2023-02-26T08:59:23;5.68;;;2.92;;
17207;SDS011;8720;48.488;9.202;2023-02-26T09:01:51;3.70;;;3.13;;
17207;SDS011;8720;48.488;9.202;2023-02-26T09:04:19;4.57;;;3.10;;
17207;SDS011;8720;48.488;9.202;2023-02-26T09:06:47;5.05;;;3.53;;
17207;SDS011;8720;48.488;9.202;2023-02-26T09:09:14;5.75;;;3.05;;
17207;SDS011;8720;48.488;9.202;2023-02-26T09:11:43;8.02;;;2.90;;
17207;SDS011;8720;48.488;9.202;2023-02-26T09:14:10;4.20;;;2.97;;
17207;SDS011;8720;48.488;9.202;2023-02-26T09:16:40;5.53;;;3.00;;
17207;SDS011;8720;48.488;9.202;2023-02-26T09:19:07;3.67;;;2.92;;
17207;SDS011;8720;48.488;9.202;2023-02-26T09:21:36;6.68;;;3.08;;
17207;SDS011;8720;48.488;9.202;2023-02-26T09:24:03;4.03;;;2.95;;
17207;SDS011;8720;48.488;9.202;2023-02-26T09:26:32;5.25;;;3.38;;
17207;SDS011;8720;48.488;9.202;2023-02-26T09:29:00;3.55;;;2.70;;
17207;SDS011;8720;48.488;9.202;2023-02-26T09:31:27;3.15;;;2.72;;
17207;SDS011;8720;48.488;9.202;2023-02-26T09:33:56;5.45;;;3.05;;
17207;SDS011;8720;48.488;9.202;2023-02-26T09:36:23;4.68;;;3.00;;
17207;SDS011;8720;48.488;9.202;2023-02-26T09:38:51;3.50;;;2.83;;
17207;SDS011;8720;48.488;9.202;2023-02-26T09:41:20;4.15;;;3.05;;
17207;SDS011;8720;48.488;9.202;2023-02-26T09:44:03;5.43;;;3.33;;
17207;SDS011;8720;48.488;9.202;2023-02-26T09:46:46;3.73;;;2.87;;
17207;SDS011;8720;48.488;9.202;2023-02-26T09:49:28;3.93;;;2.57;;
17207;SDS011;8720;48.488;9.202;2023-02-26T09:52:11;2.50;;;2.27;;
17207;SDS011;8720;48.488;9.202;2023-02-26T09:54:51;4.82;;;2.88;;
17207;SDS011;8720;48.488;9.202;2023-02-26T09:57:28;2.95;;;2.38;;
17207;SDS011;8720;48.488;9.202;2023-02-26T09:59:58;7.15;;;3.03;;
17207;SDS011;8720;48.488;9.202;2023-02-26T10:02:38;3.67;;;2.60;;
17207;SDS011;8720;48.488;9.202;2023-02-26T10:05:19;3.93;;;3.33;;
17207;SDS011;8720;48.488;9.202;2023-02-26T10:07:58;3.93;;;2.60;;
17207;SDS011;8720;48.488;9.202;2023-02-26T10:10:34;7.23;;;2.80;;
17207;SDS011;8720;48.488;9.202;2023-02-26T10:13:17;2.97;;;2.73;;
17207;SDS011;8720;48.488;9.202;2023-02-26T10:15:55;4.07;;;2.50;;
17207;SDS011;8720;48.488;9.202;2023-02-26T10:18:31;3.40;;;2.57;;
17207;SDS011;8720;48.488;9.202;2023-02-26T10:21:08;3.30;;;2.93;;
17207;SDS011;8720;48.488;9.202;2023-02-26T10:23:41;3.80;;;2.67;;
17207;SDS011;8720;48.488;9.202;2023-02-26T10:26:13;3.90;;;2.70;;
17207;SDS011;8720;48.488;9.202;2023-02-26T10:28:52;2.87;;;2.37;;
17207;SDS011;8720;48.488;9.202;2023-02-26T10:31:30;2.90;;;2.27;;
17207;SDS011;8720;48.488;9.202;2023-02-26T10:34:09;3.03;;;2.73;;
17207;SDS011;8720;48.488;9.202;2023-02-26T10:36:51;3.70;;;2.60;;
17207;SDS011;8720;48.488;9.202;2023-02-26T10:39:28;2.77;;;2.57;;
17207;SDS011;8720;48.488;9.202;2023-02-26T10:42:04;3.63;;;2.30;;
17207;SDS011;8720;48.488;9.202;2023-02-26T10:44:40;3.30;;;2.70;;
17207;SDS011;8720;48.488;9.202;2023-02-26T10:47:20;3.70;;;2.40;;
17207;SDS011;8720;48.488;9.202;2023-02-26T10:50:00;3.10;;;2.57;;
17207;SDS011;8720;48.488;9.202;2023-02-26T10:52:32;2.93;;;2.13;;
17207;SDS011;8720;48.488;9.202;2023-02-26T10:55:19;3.63;;;2.53;;
17207;SDS011;8720;48.488;9.202;2023-02-26T10:58:09;4.40;;;2.60;;
17207;SDS011;8720;48.488;9.202;2023-02-26T11:00:39;2.23;;;1.97;;
17207;SDS011;8720;48.488;9.202;2023-02-26T11:03:12;4.13;;;2.53;;
17207;SDS011;8720;48.488;9.202;2023-02-26T11:05:44;2.97;;;2.40;;
17207;SDS011;8720;48.488;9.202;2023-02-26T11:08:16;3.20;;;2.43;;
17207;SDS011;8720;48.488;9.202;2023-02-26T11:10:52;3.30;;;2.40;;
17207;SDS011;8720;48.488;9.202;2023-02-26T11:13:21;3.43;;;2.50;;
17207;SDS011;8720;48.488;9.202;2023-02-26T11:15:51;3.60;;;2.50;;
17207;SDS011;8720;48.488;9.202;2023-02-26T11:18:23;3.30;;;2.03;;
17207;SDS011;8720;48.488;9.202;2023-02-26T11:20:55;2.63;;;1.90;;
17207;SDS011;8720;48.488;9.202;2023-02-26T11:23:27;2.50;;;2.20;;
17207;SDS011;8720;48.488;9.202;2023-02-26T11:25:59;4.23;;;2.50;;
17207;SDS011;8720;48.488;9.202;2023-02-26T11:28:34;4.23;;;2.67;;
17207;SDS011;8720;48.488;9.202;2023-02-26T11:31:08;2.40;;;2.20;;
17207;SDS011;8720;48.488;9.202;2023-02-26T11:33:43;2.60;;;2.40;;
17207;SDS011;8720;48.488;9.202;2023-02-26T11:36:15;2.83;;;2.50;;
17207;SDS011;8720;48.488;9.202;2023-02-26T11:38:51;3.83;;;3.10;;
17207;SDS011;8720;48.488;9.202;2023-02-26T11:41:22;3.77;;;2.30;;
17207;SDS011;8720;48.488;9.202;2023-02-26T11:43:57;3.00;;;2.70;;
17207;SDS011;8720;48.488;9.202;2023-02-26T11:46:30;2.57;;;2.00;;
17207;SDS011;8720;48.488;9.202;2023-02-26T11:49:03;3.20;;;2.37;;
17207;SDS011;8720;48.488;9.202;2023-02-26T11:51:31;5.13;;;2.40;;
17207;SDS011;8720;48.488;9.202;2023-02-26T11:54:00;2.50;;;2.30;;
17207;SDS011;8720;48.488;9.202;2023-02-26T11:56:29;4.10;;;2.40;;
17207;SDS011;8720;48.488;9.202;2023-02-26T11:59:04;3.87;;;2.33;;
17207;SDS011;8720;48.488;9.202;2023-02-26T12:01:42;3.70;;;2.33;;
17207;SDS011;8720;48.488;9.202;2023-02-26T12:04:10;3.53;;;2.70;;
17207;SDS011;8720;48.488;9.202;2023-02-26T12:06:40;3.30;;;2.33;;
17207;SDS011;8720;48.488;9.202;2023-02-26T12:09:10;4.23;;;2.70;;
17207;SDS011;8720;48.488;9.202;2023-02-26T12:11:45;3.50;;;2.53;;
17207;SDS011;8720;48.488;9.202;2023-02-26T12:14:32;3.47;;;2.67;;
17207;SDS011;8720;48.488;9.202;2023-02-26T12:17:30;2.40;;;2.20;;
17207;SDS011;8720;48.488;9.202;2023-02-26T12:20:14;4.10;;;2.80;;
17207;SDS011;8720;48.488;9.202;2023-02-26T12:22:52;4.10;;;3.70;;
17207;SDS011;8720;48.488;9.202;2023-02-26T12:25:51;3.83;;;2.83;;
17207;SDS011;8720;48.488;9.202;2023-02-26T12:28:51;5.50;;;2.73;;
17207;SDS011;8720;48.488;9.202;2023-02-26T12:35:07;3.30;;;2.73;;
17207;SDS011;8720;48.488;9.202;2023-02-26T12:38:08;2.50;;;2.30;;
17207;SDS011;8720;48.488;9.202;2023-02-26T12:40:52;4.40;;;3.17;;
17207;SDS011;8720;48.488;9.202;2023-02-26T12:43:45;3.30;;;3.00;;
17207;SDS011;8720;48.488;9.202;2023-02-26T12:46:18;4.27;;;2.97;;
17207;SDS011;8720;48.488;9.202;2023-02-26T12:52:23;4.17;;;2.73;;
17207;SDS011;8720;48.488;9.202;2023-02-26T12:55:29;7.80;;;2.77;;
17207;SDS011;8720;48.488;9.202;2023-02-26T12:58:12;2.80;;;2.60;;
17207;SDS011;8720;48.488;9.202;2023-02-26T13:01:07;4.07;;;3.43;;
17207;SDS011;8720;48.488;9.202;2023-02-26T13:07:09;4.20;;;3.33;;
17207;SDS011;8720;48.488;9.202;2023-02-26T13:10:07;4.50;;;4.10;;
17207;SDS011;8720;48.488;9.202;2023-02-26T13:12:49;7.13;;;6.43;;
17207;SDS011;8720;48.488;9.202;2023-02-26T13:15:51;3.90;;;3.50;;
17207;SDS011;8720;48.488;9.202;2023-02-26T13:18:42;4.13;;;3.50;;
17207;SDS011;8720;48.488;9.202;2023-02-26T13:21:20;3.73;;;3.43;;
17207;SDS011;8720;48.488;9.202;2023-02-26T13:23:53;3.20;;;3.00;;
17207;SDS011;8720;48.488;9.202;2023-02-26T13:26:29;5.10;;;4.60;;
17207;SDS011;8720;48.488;9.202;2023-02-26T13:28:59;4.80;;;4.40;;
17207;SDS011;8720;48.488;9.202;2023-02-26T13:31:34;4.47;;;3.40;;
17207;SDS011;8720;48.488;9.202;2023-02-26T13:34:10;3.53;;;3.00;;
17207;SDS011;8720;48.488;9.202;2023-02-26T13:36:45;2.67;;;2.47;;
17207;SDS011;8720;48.488;9.202;2023-02-26T13:39:30;4.20;;;3.50;;
17207;SDS011;8720;48.488;9.202;2023-02-26T13:42:09;2.30;;;2.10;;
17207;SDS011;8720;48.488;9.202;2023-02-26T13:44:55;3.27;;;2.37;;
17207;SDS011;8720;48.488;9.202;2023-02-26T13:47:50;2.43;;;2.23;;
17207;SDS011;8720;48.488;9.202;2023-02-26T13:50:33;2.40;;;2.10;;
17207;SDS011;8720;48.488;9.202;2023-02-26T13:53:34;2.63;;;2.07;;
17207;SDS011;8720;48.488;9.202;2023-02-26T13:56:20;3.07;;;2.50;;
17207;SDS011;8720;48.488;9.202;2023-02-26T13:59:22;2.20;;;2.00;;
17207;SDS011;8720;48.488;9.202;2023-02-26T14:02:02;2.80;;;2.20;;
17207;SDS011;8720;48.488;9.202;2023-02-26T14:05:06;3.10;;;1.80;;
17207;SDS011;8720;48.488;9.202;2023-02-26T14:08:07;1.80;;;1.60;;
17207;SDS011;8720;48.488;9.202;2023-02-26T14:10:53;2.97;;;1.63;;
17207;SDS011;8720;48.488;9.202;2023-02-26T14:13:29;2.33;;;1.73;;
17207;SDS011;8720;48.488;9.202;2023-02-26T14:16:08;4.17;;;2.50;;
17207;SDS011;8720;48.488;9.202;2023-02-26T14:18:47;2.83;;;1.70;;
17207;SDS011;8720;48.488;9.202;2023-02-26T14:21:37;1.97;;;1.50;;
17207;SDS011;8720;48.488;9.202;2023-02-26T14:24:15;1.97;;;1.77;;
17207;SDS011;8720;48.488;9.202;2023-02-26T14:26:49;2.20;;;1.97;;
17207;SDS011;8720;48.488;9.202;2023-02-26T14:29:37;3.77;;;1.97;;
17207;SDS011;8720;48.488;9.202;2023-02-26T14:32:12;2.00;;;1.40;;
17207;SDS011;8720;48.488;9.202;2023-02-26T14:34:49;2.20;;;1.80;;
17207;SDS011;8720;48.488;9.202;2023-02-26T14:37:24;2.03;;;1.60;;
17207;SDS011;8720;48.488;9.202;2023-02-26T14:39:54;1.90;;;1.60;;
17207;SDS011;8720;48.488;9.202;2023-02-26T14:42:33;2.73;;;1.40;;
17207;SDS011;8720;48.488;9.202;2023-02-26T14:45:08;1.90;;;1.70;;
17207;SDS011;8720;48.488;9.202;2023-02-26T14:47:52;3.17;;;2.23;;
17207;SDS011;8720;48.488;9.202;2023-02-26T14:50:22;2.50;;;1.60;;
17207;SDS011;8720;48.488;9.202;2023-02-26T14:52:59;2.13;;;1.40;;
17207;SDS011;8720;48.488;9.202;2023-02-26T14:56:03;1.63;;;1.50;;
17207;SDS011;8720;48.488;9.202;2023-02-26T14:58:44;2.47;;;1.50;;
17207;SDS011;8720;48.488;9.202;2023-02-26T15:01:44;2.40;;;1.57;;
17207;SDS011;8720;48.488;9.202;2023-02-26T15:07:28;2.00;;;1.80;;
17207;SDS011;8720;48.488;9.202;2023-02-26T15:10:18;1.70;;;1.60;;
17207;SDS011;8720;48.488;9.202;2023-02-26T15:13:12;2.37;;;2.00;;
17207;SDS011;8720;48.488;9.202;2023-02-26T15:16:01;2.37;;;1.60;;
17207;SDS011;8720;48.488;9.202;2023-02-26T15:21:42;1.53;;;1.40;;
17207;SDS011;8720;48.488;9.202;2023-02-26T15:24:24;2.20;;;2.00;;
17207;SDS011;8720;48.488;9.202;2023-02-26T15:26:58;2.13;;;1.53;;
17207;SDS011;8720;48.488;9.202;2023-02-26T15:29:30;1.80;;;1.50;;
17207;SDS011;8720;48.488;9.202;2023-02-26T15:32:04;3.50;;;1.60;;
17207;SDS011;8720;48.488;9.202;2023-02-26T15:34:41;2.10;;;1.80;;
17207;SDS011;8720;48.488;9.202;2023-02-26T15:37:17;1.60;;;1.50;;
17207;SDS011;8720;48.488;9.202;2023-02-26T15:39:50;2.67;;;1.97;;
17207;SDS011;8720;48.488;9.202;2023-02-26T15:42:20;1.67;;;1.37;;
17207;SDS011;8720;48.488;9.202;2023-02-26T15:44:56;2.10;;;1.90;;
17207;SDS011;8720;48.488;9.202;2023-02-26T15:47:28;2.90;;;1.43;;
17207;SDS011;8720;48.488;9.202;2023-02-26T15:49:56;2.80;;;2.30;;
17207;SDS011;8720;48.488;9.202;2023-02-26T15:52:26;2.50;;;1.83;;
17207;SDS011;8720;48.488;9.202;2023-02-26T15:54:55;2.63;;;2.27;;
17207;SDS011;8720;48.488;9.202;2023-02-26T15:57:27;5.50;;;1.47;;
17207;SDS011;8720;48.488;9.202;2023-02-26T16:00:00;2.60;;;2.00;;
17207;SDS011;8720;48.488;9.202;2023-02-26T16:02:37;2.57;;;2.17;;
17207;SDS011;8720;48.488;9.202;2023-02-26T16:05:11;2.17;;;1.73;;
17207;SDS011;8720;48.488;9.202;2023-02-26T16:07:39;2.20;;;2.00;;